createdAt,value
2022-07-25T00:03:57.889Z,0
2022-07-25T00:08:57.944Z,0
2022-07-25T00:13:57.918Z,0
2022-07-25T00:18:57.924Z,0
2022-07-25T00:23:57.941Z,0
2022-07-25T00:28:57.946Z,0
2022-07-25T00:33:57.987Z,0
2022-07-25T00:38:58.017Z,0
2022-07-25T00:43:58.035Z,0
2022-07-25T00:48:58.108Z,0
2022-07-25T00:53:58.083Z,0
2022-07-25T00:58:58.077Z,0
2022-07-25T01:03:58.153Z,0
2022-07-25T01:08:58.122Z,0
2022-07-25T01:13:58.119Z,0
2022-07-25T01:18:58.161Z,0
2022-07-25T01:23:58.179Z,0
2022-07-25T01:28:58.210Z,0
2022-07-25T01:33:58.217Z,0
2022-07-25T01:38:58.242Z,0
2022-07-25T01:43:58.277Z,0
2022-07-25T01:48:58.379Z,0
2022-07-25T01:53:58.310Z,0
2022-07-25T01:58:58.341Z,0
2022-07-25T02:03:58.373Z,0
2022-07-25T02:08:58.353Z,0
2022-07-25T02:13:58.385Z,0
2022-07-25T02:18:58.439Z,0
2022-07-25T02:23:58.423Z,0
2022-07-25T02:28:58.463Z,0
2022-07-25T02:33:58.463Z,0
2022-07-25T02:38:58.480Z,0
2022-07-25T02:43:58.534Z,0
2022-07-25T02:48:58.584Z,0
2022-07-25T02:53:58.951Z,0
2022-07-25T02:58:58.583Z,0
2022-07-25T03:03:58.645Z,0
2022-07-25T03:08:58.695Z,0
2022-07-25T03:13:58.641Z,0
2022-07-25T03:18:58.652Z,0
2022-07-25T03:23:58.679Z,0
2022-07-25T03:28:58.769Z,0
2022-07-25T03:33:58.703Z,0
2022-07-25T03:38:58.825Z,0
2022-07-25T03:43:58.753Z,1
2022-07-25T03:48:58.886Z,1
2022-07-25T03:53:58.819Z,5
2022-07-25T03:58:58.894Z,7
2022-07-25T04:03:58.865Z,5
2022-07-25T04:08:59.059Z,11
2022-07-25T04:13:58.894Z,12
2022-07-25T04:18:59.011Z,11
2022-07-25T04:23:58.920Z,17
2022-07-25T04:28:59.000Z,16
2022-07-25T04:33:58.972Z,16
2022-07-25T04:38:59.063Z,14
2022-07-25T04:43:59.032Z,14
2022-07-25T04:48:59.685Z,16
2022-07-25T04:53:59.307Z,18
2022-07-25T04:59:03.243Z,20
2022-07-25T05:03:59.336Z,20
2022-07-25T05:08:59.355Z,24
2022-07-25T05:13:59.397Z,28
2022-07-25T05:18:59.461Z,30
2022-07-25T05:23:59.413Z,41
2022-07-25T05:28:59.458Z,53
2022-07-25T05:33:59.480Z,58
2022-07-25T05:38:59.529Z,67
2022-07-25T05:43:59.533Z,78
2022-07-25T05:48:59.569Z,76
2022-07-25T05:53:59.561Z,90
2022-07-25T05:58:59.597Z,109
2022-07-25T06:03:59.624Z,125
2022-07-25T06:08:59.653Z,132
2022-07-25T06:13:59.664Z,128
2022-07-25T06:18:59.676Z,127
2022-07-25T06:23:59.676Z,127
2022-07-25T06:28:59.710Z,129
2022-07-25T06:33:59.797Z,142
2022-07-25T06:38:59.792Z,144
2022-07-25T06:43:59.812Z,136
2022-07-25T06:48:59.937Z,137
2022-07-25T06:53:59.845Z,159
2022-07-25T06:58:59.870Z,166
2022-07-25T07:03:59.867Z,190
2022-07-25T07:08:59.889Z,224
2022-07-25T07:13:59.906Z,238
2022-07-25T07:18:59.937Z,256
2022-07-25T07:23:59.959Z,289
2022-07-25T07:28:59.991Z,278
2022-07-25T07:33:59.979Z,324
2022-07-25T07:39:00.048Z,339
2022-07-25T07:44:00.059Z,300
2022-07-25T07:49:00.104Z,282
2022-07-25T07:54:00.096Z,364
2022-07-25T07:59:00.132Z,333
2022-07-25T08:04:00.138Z,490
2022-07-25T08:09:00.124Z,281
2022-07-25T08:14:00.182Z,296
2022-07-25T08:19:00.241Z,434
2022-07-25T08:24:02.197Z,475
2022-07-25T08:29:20.634Z,541
2022-07-25T08:34:12.263Z,565
2022-07-25T08:39:13.006Z,606
2022-07-25T08:44:13.635Z,535
2022-07-25T08:49:13.747Z,551
2022-07-25T08:54:14.042Z,452
2022-07-25T08:59:14.564Z,430
2022-07-25T09:04:14.525Z,423
2022-07-25T09:09:14.802Z,382
2022-07-25T09:14:15.697Z,424
2022-07-25T09:19:17.019Z,495
2022-07-25T09:24:16.679Z,574
2022-07-25T09:29:16.692Z,617
2022-07-25T09:34:16.669Z,506
2022-07-25T09:39:16.724Z,437
2022-07-25T09:44:17.327Z,472
2022-07-25T09:49:19.587Z,451
2022-07-25T09:54:19.761Z,386
2022-07-25T09:59:19.592Z,438
2022-07-25T10:04:19.635Z,447
2022-07-25T10:09:19.671Z,400
2022-07-25T10:14:19.662Z,435
2022-07-25T10:19:19.707Z,383
2022-07-25T10:24:19.733Z,283
2022-07-25T10:29:19.720Z,237
2022-07-25T10:34:19.767Z,228
2022-07-25T10:39:19.807Z,250
2022-07-25T10:44:19.834Z,316
2022-07-25T10:49:19.864Z,415
2022-07-25T10:54:22.294Z,459
2022-07-25T10:59:23.178Z,377
2022-07-25T11:04:24.119Z,368
2022-07-25T11:09:27.117Z,386
2022-07-25T11:14:26.399Z,467
2022-07-25T11:19:26.431Z,569
2022-07-25T11:24:31.282Z,490
2022-07-25T11:29:33.721Z,501
2022-07-25T11:34:33.770Z,577
2022-07-25T11:39:33.764Z,438
2022-07-25T11:44:33.738Z,304
2022-07-25T11:49:33.776Z,358
2022-07-25T11:54:33.798Z,433
2022-07-25T11:59:33.845Z,367
2022-07-25T12:04:33.826Z,153
2022-07-25T12:09:33.853Z,185
2022-07-25T12:14:35.409Z,162
2022-07-25T12:19:33.898Z,118
2022-07-25T12:24:34.641Z,128
2022-07-25T12:29:34.518Z,326
2022-07-25T12:34:34.497Z,394
2022-07-25T12:39:34.576Z,668
2022-07-25T12:44:34.560Z,998
2022-07-25T12:49:34.576Z,944
2022-07-25T12:54:34.579Z,929
2022-07-25T12:59:34.659Z,937
2022-07-25T13:04:34.605Z,914
2022-07-25T13:09:34.660Z,895
2022-07-25T13:14:34.701Z,878
2022-07-25T13:19:34.689Z,856
2022-07-25T13:24:34.718Z,533
2022-07-25T13:29:34.780Z,589
2022-07-25T13:34:34.795Z,892
2022-07-25T13:39:34.795Z,566
2022-07-25T13:44:34.834Z,365
2022-07-25T13:49:34.834Z,418
2022-07-25T13:54:34.885Z,691
2022-07-25T13:59:34.893Z,581
2022-07-25T14:04:34.913Z,549
2022-07-25T14:09:34.938Z,538
2022-07-25T14:14:37.273Z,238
2022-07-25T14:19:41.140Z,263
2022-07-25T14:24:41.011Z,779
2022-07-25T14:29:41.533Z,398
2022-07-25T14:34:42.091Z,264
2022-07-25T14:39:42.334Z,269
2022-07-25T14:44:42.610Z,197
2022-07-25T14:49:42.634Z,227
2022-07-25T14:54:42.659Z,329
2022-07-25T14:59:42.698Z,241
2022-07-25T15:04:43.556Z,237
2022-07-25T15:09:44.566Z,204
2022-07-25T15:14:44.565Z,222
2022-07-25T15:19:44.612Z,118
2022-07-25T15:25:17.102Z,136
2022-07-25T15:29:44.644Z,257
2022-07-25T15:34:44.657Z,293
2022-07-25T15:39:44.945Z,258
2022-07-25T15:44:49.185Z,127
2022-07-25T15:49:49.171Z,109
2022-07-25T15:54:52.942Z,198
2022-07-25T15:59:52.572Z,187
2022-07-25T16:04:52.571Z,161
2022-07-25T16:09:52.577Z,192
2022-07-25T16:14:52.634Z,177
2022-07-25T16:19:52.618Z,226
2022-07-25T16:24:52.661Z,88
2022-07-25T16:29:52.700Z,111
2022-07-25T16:34:52.732Z,187
2022-07-25T16:39:52.755Z,228
2022-07-25T16:44:52.746Z,132
2022-07-25T16:49:52.781Z,106
2022-07-25T16:54:52.809Z,69
2022-07-25T16:59:52.833Z,104
2022-07-25T17:04:52.911Z,99
2022-07-25T17:09:52.859Z,60
2022-07-25T17:14:52.852Z,48
2022-07-25T17:19:56.594Z,60
2022-07-25T17:24:52.941Z,61
2022-07-25T17:29:52.924Z,48
2022-07-25T17:34:52.987Z,70
2022-07-25T17:39:52.993Z,60
2022-07-25T17:44:53.010Z,48
2022-07-25T17:49:53.043Z,44
2022-07-25T17:54:53.059Z,51
2022-07-25T17:59:53.086Z,68
2022-07-25T18:04:53.107Z,43
2022-07-25T18:09:53.120Z,25
2022-07-25T18:14:53.137Z,25
2022-07-25T18:19:53.172Z,25
2022-07-25T18:24:53.173Z,24
2022-07-25T18:29:53.200Z,24
2022-07-25T18:34:53.219Z,23
2022-07-25T18:39:53.225Z,19
2022-07-25T18:44:53.246Z,14
2022-07-25T18:49:53.289Z,12
2022-07-25T18:54:53.319Z,21
2022-07-25T18:59:53.349Z,10
2022-07-25T19:04:53.422Z,12
2022-07-25T19:09:53.360Z,17
2022-07-25T19:14:53.412Z,12
2022-07-25T19:19:53.399Z,18
2022-07-25T19:24:53.418Z,10
2022-07-25T19:29:53.417Z,0
2022-07-25T19:34:53.501Z,0
2022-07-25T19:39:53.504Z,0
2022-07-25T19:44:53.526Z,0
2022-07-25T19:49:53.561Z,0
2022-07-25T19:54:53.543Z,0
2022-07-25T19:59:53.583Z,0
2022-07-25T20:04:53.628Z,0
2022-07-25T20:09:53.648Z,0
2022-07-25T20:14:53.665Z,0
2022-07-25T20:19:53.679Z,0
2022-07-25T20:24:53.729Z,0
2022-07-25T20:29:53.692Z,0
2022-07-25T20:34:53.726Z,0
2022-07-25T20:39:53.779Z,0
2022-07-25T20:44:53.761Z,0
2022-07-25T20:49:53.781Z,0
2022-07-25T20:54:53.828Z,0
2022-07-25T20:59:53.837Z,0
2022-07-25T21:04:53.885Z,0
2022-07-25T21:09:53.870Z,0
2022-07-25T21:14:53.891Z,0
2022-07-25T21:19:53.922Z,0
2022-07-25T21:24:53.953Z,0
2022-07-25T21:29:53.960Z,0
2022-07-25T21:34:53.983Z,0
2022-07-25T21:39:54.002Z,0
2022-07-25T21:44:54.078Z,0
2022-07-25T21:49:54.039Z,0
2022-07-25T21:54:54.079Z,0
2022-07-25T21:59:54.076Z,0
2022-07-25T22:04:54.127Z,0
2022-07-25T22:09:54.114Z,0
2022-07-25T22:14:54.161Z,0
2022-07-25T22:19:54.186Z,0
2022-07-25T22:24:54.218Z,0
2022-07-25T22:29:54.202Z,0
2022-07-25T22:34:54.230Z,0
2022-07-25T22:39:57.762Z,0
2022-07-25T22:44:54.290Z,0
2022-07-25T22:49:54.288Z,0
2022-07-25T22:54:54.308Z,0
2022-07-25T22:59:54.367Z,0
2022-07-25T23:04:54.381Z,0
2022-07-25T23:09:54.353Z,0
2022-07-25T23:14:54.402Z,0
2022-07-25T23:19:54.432Z,0
2022-07-25T23:24:54.446Z,0
2022-07-25T23:29:54.456Z,0
2022-07-25T23:34:54.485Z,0
2022-07-25T23:39:54.503Z,0
2022-07-25T23:44:54.513Z,0
2022-07-25T23:49:54.549Z,0
2022-07-25T23:54:54.577Z,0
2022-07-25T23:59:54.584Z,0
